Time;durP1;ratioP1;P1;durP2;ratioP2;P2;SDS_P1;SDS_P2;PMS_P1;PMS_P2;Temp;Humidity;BMP_temperature;BMP_pressure;BME280_temperature;BME280_humidity;BME280_pressure;Samples;Min_cycle;Max_cycle;Signal;HPM_P1;HPM_P2
2022/08/11 00:00:11;;;;;;;5.57;4.53;;;;;;;19.95;62.76;95598.44;5009225;28;20025;-84
2022/08/11 00:02:44;;;;;;;7.28;4.40;;;;;;;19.97;62.45;95604.47;5026713;28;20480;-83
2022/08/11 00:05:14;;;;;;;7.22;4.75;;;;;;;19.90;62.75;95598.28;5025819;28;20029;-83
2022/08/11 00:07:43;;;;;;;4.82;3.72;;;;;;;19.99;62.38;95604.25;5025341;28;20090;-83
2022/08/11 00:10:13;;;;;;;7.45;4.30;;;;;;;20.03;62.51;95605.47;5026747;28;20454;-83
2022/08/11 00:12:39;;;;;;;7.13;4.07;;;;;;;20.07;62.45;95603.91;5026130;28;20049;-83
2022/08/11 00:15:05;;;;;;;6.18;4.40;;;;;;;20.07;62.17;95600.38;5008859;28;20518;-84
2022/08/11 00:17:32;;;;;;;5.40;4.45;;;;;;;20.11;61.97;95602.41;5026357;28;20025;-83
2022/08/11 00:20:06;;;;;;;5.82;4.72;;;;;;;19.95;62.51;95598.44;5025382;28;20031;-83
2022/08/11 00:22:32;;;;;;;7.63;4.53;;;;;;;19.88;62.67;95605.84;5025617;28;20113;-83
2022/08/11 00:24:57;;;;;;;6.57;4.78;;;;;;;20.00;62.42;95601.28;5025012;28;20116;-83
2022/08/11 00:27:33;;;;;;;5.00;4.40;;;;;;;20.10;62.09;95602.63;5025033;28;20029;-84
2022/08/11 00:29:58;;;;;;;8.40;4.70;;;;;;;20.07;61.87;95598.47;5026120;28;20033;-84
2022/08/11 00:32:24;;;;;;;4.97;4.47;;;;;;;19.98;62.09;95591.69;5008774;28;20075;-82
2022/08/11 00:34:49;;;;;;;6.82;4.53;;;;;;;19.89;62.47;95585.75;5008597;28;20156;-83
2022/08/11 00:37:19;;;;;;;6.93;4.18;;;;;;;19.93;62.46;95591.53;5008205;28;20075;-82
2022/08/11 00:39:49;;;;;;;5.43;4.93;;;;;;;19.91;62.41;95591.78;5025161;28;20412;-83
2022/08/11 00:42:17;;;;;;;7.95;4.32;;;;;;;19.87;62.60;95591.44;5024510;28;20396;-83
2022/08/11 00:45:21;;;;;;;5.00;4.50;;;;;;;19.84;62.73;95591.91;5026316;28;20029;-82
2022/08/11 00:48:06;;;;;;;7.07;4.72;;;;;;;19.94;62.54;95596.75;5026174;28;20037;-82
2022/08/11 00:50:46;;;;;;;4.95;4.20;;;;;;;20.03;62.08;95594.56;5024401;28;20014;-82
2022/08/11 00:53:48;;;;;;;4.78;4.30;;;;;;;20.05;62.13;95592.44;5024630;28;20034;-83
2022/08/11 00:56:34;;;;;;;5.77;4.53;;;;;;;20.01;62.07;95591.22;5023516;28;20401;-83
2022/08/11 00:59:11;;;;;;;6.60;4.80;;;;;;;20.07;61.64;95594.94;5024858;28;20116;-83
2022/08/11 01:01:37;;;;;;;5.93;4.32;;;;;;;20.05;61.76;95586.16;5026070;28;20034;-83
2022/08/11 01:04:27;;;;;;;8.70;5.03;;;;;;;20.03;61.59;95586.41;5026100;28;20029;-83
2022/08/11 01:07:29;;;;;;;5.70;4.28;;;;;;;19.94;62.04;95588.59;5026270;28;20033;-83
2022/08/11 01:10:37;;;;;;;5.33;4.83;;;;;;;19.93;62.13;95589.66;5026311;28;20040;-83
2022/08/11 01:13:27;;;;;;;4.72;4.18;;;;;;;19.91;62.25;95586.31;5024297;28;20295;-83
2022/08/11 01:16:04;;;;;;;4.47;4.07;;;;;;;19.88;62.23;95584.91;5026030;28;20389;-83
2022/08/11 01:18:49;;;;;;;5.47;4.65;;;;;;;19.88;62.03;95587.63;5025702;28;20041;-83
2022/08/11 01:21:53;;;;;;;5.50;4.85;;;;;;;19.74;62.01;95587.00;5025905;28;20053;-82
2022/08/11 01:24:56;;;;;;;4.78;4.28;;;;;;;19.70;62.28;95585.00;5034325;28;20045;-83
2022/08/11 01:27:52;;;;;;;6.65;5.05;;;;;;;19.56;62.88;95587.03;5025593;28;20415;-83
2022/08/11 01:30:42;;;;;;;6.13;4.60;;;;;;;19.47;63.17;95584.66;5025848;28;20116;-82
2022/08/11 01:33:22;;;;;;;5.28;4.57;;;;;;;19.56;62.73;95582.44;5024650;28;20120;-82
2022/08/11 01:35:59;;;;;;;7.80;5.10;;;;;;;19.51;63.01;95577.69;5026000;28;20034;-83
2022/08/11 01:38:42;;;;;;;5.68;4.93;;;;;;;19.55;63.25;95572.63;5025299;28;20168;-84
2022/08/11 01:41:16;;;;;;;10.90;5.28;;;;;;;19.57;63.42;95570.50;5025887;28;20128;-82
2022/08/11 01:50:17;;;;;;;6.57;5.03;;;;;;;19.57;63.33;95569.69;5026219;28;20163;-82
2022/08/11 01:52:55;;;;;;;5.82;5.22;;;;;;;19.46;63.33;95576.75;5023702;28;20061;-82
2022/08/11 01:55:26;;;;;;;7.05;5.28;;;;;;;19.44;63.47;95576.13;5025756;28;20099;-82
2022/08/11 01:58:30;;;;;;;6.85;5.53;;;;;;;19.35;64.05;95573.72;5024487;28;20037;-82
2022/08/11 02:01:36;;;;;;;6.15;5.05;;;;;;;19.18;64.28;95570.81;5024012;28;20023;-84
2022/08/11 02:04:33;;;;;;;7.63;5.35;;;;;;;19.12;64.42;95575.25;5024263;28;20124;-83
2022/08/11 02:07:03;;;;;;;7.10;4.90;;;;;;;19.00;64.43;95577.91;5029383;28;20415;-83
2022/08/11 02:09:52;;;;;;;9.52;5.20;;;;;;;19.10;64.24;95577.38;5027216;28;20060;-83
2022/08/11 02:12:17;;;;;;;6.80;5.18;;;;;;;19.20;63.34;95581.47;5027682;28;20045;-83
2022/08/11 02:14:48;;;;;;;6.70;4.80;;;;;;;19.24;63.18;95586.22;5028668;28;20395;-83
2022/08/11 02:17:35;;;;;;;7.55;5.20;;;;;;;19.20;63.23;95573.31;5011549;28;20060;-84
2022/08/11 02:23:39;;;;;;;6.68;5.28;;;;;;;18.93;63.87;95582.56;5028875;28;20063;-82
2022/08/11 02:26:12;;;;;;;6.10;5.07;;;;;;;19.04;63.12;95583.69;5028265;28;20517;-83
2022/08/11 02:28:59;;;;;;;5.10;4.60;;;;;;;19.12;62.57;95582.59;5028802;28;20445;-83
2022/08/11 02:34:52;;;;;;;8.25;4.55;;;;;;;19.09;62.56;95586.59;5027710;28;20087;-83
2022/08/11 02:37:23;;;;;;;5.25;4.70;;;;;;;18.88;62.90;95580.53;5027303;28;20551;-82
2022/08/11 02:39:54;;;;;;;7.93;5.10;;;;;;;18.87;62.66;95570.72;5026987;28;20103;-83
2022/08/11 02:42:33;;;;;;;8.55;5.68;;;;;;;18.92;62.64;95569.19;5028636;28;20032;-83
2022/08/11 02:45:08;;;;;;;7.15;5.05;;;;;;;18.93;63.03;95576.28;5028127;28;20041;-83
2022/08/11 02:51:18;;;;;;;5.50;4.85;;;;;;;18.73;63.20;95570.03;5028449;28;20039;-82
2022/08/11 02:54:20;;;;;;;6.05;5.15;;;;;;;18.51;63.80;95570.47;5028095;28;20025;-82
2022/08/11 02:57:05;;;;;;;7.05;5.38;;;;;;;18.68;63.68;95574.47;5026248;28;20212;-83
2022/08/11 02:59:52;;;;;;;10.55;5.10;;;;;;;18.64;63.30;95576.81;5027383;28;20039;-82
2022/08/11 03:02:24;;;;;;;8.35;5.47;;;;;;;18.59;63.28;95574.78;5029345;28;20021;-82
2022/08/11 03:04:58;;;;;;;6.13;5.07;;;;;;;18.68;62.88;95569.03;5027716;28;20044;-83
2022/08/11 03:07:30;;;;;;;10.10;5.30;;;;;;;18.62;62.82;95574.31;5029219;28;20021;-82
2022/08/11 03:10:20;;;;;;;7.03;5.18;;;;;;;18.48;63.10;95575.50;5026416;28;20049;-83
2022/08/11 03:19:25;;;;;;;6.03;5.38;;;;;;;18.52;62.82;95576.72;5013792;28;20037;-83
2022/08/11 03:22:14;;;;;;;7.40;4.97;;;;;;;18.59;62.38;95580.19;5027231;28;20084;-82
2022/08/11 03:25:07;;;;;;;7.00;4.78;;;;;;;18.57;61.99;95576.88;5026952;28;20024;-83
2022/08/11 03:28:08;;;;;;;8.80;5.10;;;;;;;18.60;61.93;95568.31;5026729;28;20036;-83
2022/08/11 03:30:57;;;;;;;8.13;5.57;;;;;;;18.62;62.16;95571.59;5027762;28;20474;-82
2022/08/11 03:36:28;;;;;;;10.88;5.28;;;;;;;18.52;62.61;95577.53;5029007;28;20223;-83
2022/08/11 03:39:02;;;;;;;7.38;5.93;;;;;;;18.51;62.54;95583.19;5027899;28;20022;-82
2022/08/11 03:41:43;;;;;;;8.65;5.25;;;;;;;18.33;62.84;95587.53;5029462;28;20104;-82
2022/08/11 03:44:11;;;;;;;8.73;5.88;;;;;;;18.30;63.06;95584.47;5028352;28;20120;-83
2022/08/11 03:47:00;;;;;;;7.25;5.53;;;;;;;18.30;63.02;95588.00;5029064;28;20026;-83
2022/08/11 03:49:44;;;;;;;10.75;6.10;;;;;;;18.43;62.56;95591.66;5025669;28;20039;-83
2022/08/11 03:52:36;;;;;;;6.82;5.60;;;;;;;18.42;62.19;95582.69;5026941;28;20039;-83
2022/08/11 03:55:20;;;;;;;8.90;5.78;;;;;;;18.42;62.60;95596.25;5010844;28;20079;-83
2022/08/11 03:58:01;;;;;;;7.90;5.72;;;;;;;18.30;63.00;95582.56;5026704;28;20510;-83
2022/08/11 04:01:05;;;;;;;7.10;5.40;;;;;;;18.34;62.40;95585.66;5026056;28;20047;-83
2022/08/11 04:03:53;;;;;;;7.63;5.95;;;;;;;18.37;62.48;95586.06;5027521;28;20483;-83
2022/08/11 04:06:49;;;;;;;7.63;5.68;;;;;;;18.43;62.19;95591.66;5026355;28;20040;-83
2022/08/11 04:09:38;;;;;;;6.80;5.75;;;;;;;18.46;62.45;95591.22;5026587;28;20395;-82
2022/08/11 04:12:16;;;;;;;7.43;5.90;;;;;;;18.47;62.50;95596.41;5025654;28;20128;-83
2022/08/11 04:18:18;;;;;;;9.70;5.43;;;;;;;18.57;62.63;95589.63;5027082;28;20048;-83
2022/08/11 04:21:11;;;;;;;7.72;5.78;;;;;;;18.61;62.54;95591.69;5026725;28;20096;-83
2022/08/11 04:23:43;;;;;;;6.70;5.50;;;;;;;18.60;62.58;95590.03;5026599;28;20090;-83
2022/08/11 04:26:33;;;;;;;7.90;5.63;;;;;;;18.64;62.60;95591.22;5026589;28;20044;-83
2022/08/11 04:29:32;;;;;;;7.18;5.63;;;;;;;18.74;62.22;95598.03;5026569;28;20030;-83
2022/08/11 04:32:18;;;;;;;8.50;5.95;;;;;;;18.82;62.65;95600.44;5026285;28;20037;-83
2022/08/11 04:35:07;;;;;;;7.65;5.93;;;;;;;18.94;62.34;95597.00;5026801;28;20033;-82
2022/08/11 04:37:55;;;;;;;8.07;5.90;;;;;;;19.02;61.89;95594.78;5024444;28;20043;-83
2022/08/11 04:40:23;;;;;;;6.75;5.53;;;;;;;19.14;61.95;95607.66;5010956;28;20108;-83
2022/08/11 04:43:19;;;;;;;6.47;5.65;;;;;;;19.21;62.17;95604.84;5026465;28;20056;-84
2022/08/11 04:46:06;;;;;;;7.13;5.28;;;;;;;19.18;61.99;95599.88;5026194;28;20053;-83
2022/08/11 05:01:40;;;;;;;8.63;5.70;;;;;;;19.73;61.13;95600.84;4968161;28;20041;-82
2022/08/11 05:07:19;;;;;;;10.43;5.28;;;;;;;20.13;60.28;95599.44;5025292;28;20091;-82
2022/08/11 05:09:57;;;;;;;7.82;5.50;;;;;;;20.21;60.32;95601.84;5024460;28;20048;-82
2022/08/11 05:27:09;;;;;;;7.93;5.32;;;;;;;20.28;60.00;95606.34;5025680;28;20064;-83
2022/08/11 05:35:28;;;;;;;7.55;6.10;;;;;;;20.54;61.53;95599.59;5011191;28;20056;-83
2022/08/11 05:57:20;;;;;;;9.75;6.20;;;;;;;21.41;60.37;95584.56;5028545;28;20458;-83
2022/08/11 05:59:46;;;;;;;7.72;5.85;;;;;;;21.35;60.46;95595.38;5028750;28;20041;-83
2022/08/11 06:02:12;;;;;;;7.57;6.20;;;;;;;21.11;61.34;95589.16;5011521;28;20029;-82
2022/08/11 06:04:38;;;;;;;7.05;6.25;;;;;;;21.11;61.22;95592.72;5011163;28;20029;-84
2022/08/11 06:07:08;;;;;;;8.48;6.50;;;;;;;20.72;62.30;95590.47;5027399;28;20025;-83
2022/08/11 06:09:35;;;;;;;9.20;6.15;;;;;;;20.66;62.44;95594.16;5029258;28;20377;-83
2022/08/11 06:12:25;;;;;;;10.15;6.32;;;;;;;21.16;61.22;95583.81;5028329;28;20069;-82
2022/08/11 06:14:55;;;;;;;7.88;6.20;;;;;;;21.15;61.43;95592.22;5028960;28;20034;-83
2022/08/11 06:17:25;;;;;;;9.55;6.78;;;;;;;21.47;60.63;95589.88;5028917;28;20030;-82
2022/08/11 06:19:56;;;;;;;8.90;6.30;;;;;;;21.21;60.90;95588.53;5011501;28;20033;-83
2022/08/11 06:22:21;;;;;;;8.10;5.80;;;;;;;21.51;60.70;95584.75;5029049;28;20029;-83
2022/08/11 06:24:57;;;;;;;8.93;5.57;;;;;;;21.71;60.21;95580.78;5026792;28;20659;-83
2022/08/11 06:27:25;;;;;;;6.30;5.65;;;;;;;22.01;58.87;95579.69;5027693;28;20040;-82
2022/08/11 06:29:52;;;;;;;7.18;5.45;;;;;;;21.90;59.15;95575.13;5028265;28;20025;-82
2022/08/11 06:32:19;;;;;;;8.07;5.78;;;;;;;21.96;58.70;95574.13;5028645;28;20504;-83
2022/08/11 06:35:08;;;;;;;6.88;5.10;;;;;;;22.03;58.12;95568.53;5027068;28;20163;-82
2022/08/11 06:38:02;;;;;;;6.53;5.32;;;;;;;22.08;58.38;95576.81;5028484;28;20051;-82
2022/08/11 06:40:28;;;;;;;8.38;5.55;;;;;;;22.00;59.48;95571.75;5028714;28;20427;-83
2022/08/11 06:43:00;;;;;;;6.65;5.93;;;;;;;22.26;58.68;95578.47;5028046;28;20469;-83
2022/08/11 06:45:31;;;;;;;10.32;5.95;;;;;;;22.32;58.27;95580.22;5011619;28;20030;-83
2022/08/11 06:47:59;;;;;;;6.50;5.18;;;;;;;22.12;58.67;95582.59;5026758;28;20568;-83
2022/08/11 06:53:09;;;;;;;7.32;5.32;;;;;;;22.41;58.34;95585.25;5028105;28;20072;-84
2022/08/11 07:01:12;;;;;;;6.63;4.90;;;;;;;22.38;58.60;95585.72;5013183;28;20064;-82
2022/08/11 07:03:48;;;;;;;8.43;5.57;;;;;;;22.39;58.68;95587.41;5010299;28;20057;-83
2022/08/11 07:06:20;;;;;;;7.20;5.88;;;;;;;22.26;59.40;95581.22;5026674;28;20362;-84
2022/08/11 07:28:54;;;;;;;7.03;5.13;;;;;;;22.43;57.72;95583.09;5012925;28;20546;-83
2022/08/11 07:28:55;;;;;;;6.50;5.18;;;;;;;22.73;56.79;95581.94;5012280;28;20130;-83
2022/08/11 07:31:54;;;;;;;6.05;5.15;;;;;;;22.75;57.16;95570.75;5027343;28;20119;-82
2022/08/11 07:34:22;;;;;;;8.02;4.70;;;;;;;22.86;56.92;95577.19;5026368;28;20112;-83
2022/08/11 07:36:54;;;;;;;7.93;5.22;;;;;;;22.96;56.49;95574.59;5028782;28;20030;-83
2022/08/11 07:39:22;;;;;;;5.70;5.03;;;;;;;22.89;56.04;95573.97;5030354;28;20040;-83
2022/08/11 07:41:48;;;;;;;5.53;4.95;;;;;;;22.91;55.79;95571.81;5011298;28;20423;-82
2022/08/11 07:44:15;;;;;;;8.57;5.15;;;;;;;22.94;55.41;95571.31;5026424;28;20071;-83
2022/08/11 07:55:15;;;;;;;5.85;5.00;;;;;;;23.04;54.32;95565.94;5043771;28;20561;-82
2022/08/11 08:19:36;;;;;;;4.95;4.35;;;;;;;23.25;52.84;95558.00;5034681;28;20052;-84
2022/08/11 08:22:02;;;;;;;6.43;4.43;;;;;;;23.20;53.44;95560.66;5008925;28;20029;-83
2022/08/11 08:24:27;;;;;;;5.53;4.60;;;;;;;23.10;53.12;95553.19;5026700;28;20037;-84
2022/08/11 08:26:59;;;;;;;5.30;4.20;;;;;;;23.15;52.33;95549.69;5025240;28;20520;-82
2022/08/11 08:32:17;;;;;;;5.55;4.72;;;;;;;23.32;53.07;95544.97;5011974;28;20480;-83
2022/08/11 08:34:43;;;;;;;6.00;4.68;;;;;;;23.32;52.74;95550.44;5008181;28;20032;-83
2022/08/11 08:37:08;;;;;;;7.85;4.90;;;;;;;23.45;53.22;95542.94;5027073;28;20108;-83
2022/08/11 08:39:36;;;;;;;5.05;4.47;;;;;;;23.46;52.71;95545.41;5025620;28;20065;-83
2022/08/11 08:42:12;;;;;;;8.95;5.32;;;;;;;23.26;53.45;95540.53;5028320;28;20025;-84
2022/08/11 08:44:42;;;;;;;5.97;4.70;;;;;;;23.37;53.42;95546.09;5011422;28;20467;-82
2022/08/11 08:47:11;;;;;;;9.73;5.38;;;;;;;23.31;53.75;95543.28;5008186;28;20467;-84
2022/08/11 08:49:38;;;;;;;6.43;4.90;;;;;;;23.19;53.68;95543.44;5024669;28;20025;-82
2022/08/11 08:52:05;;;;;;;5.90;5.30;;;;;;;23.28;53.26;95545.72;5008229;28;20033;-82
2022/08/11 08:54:37;;;;;;;6.60;4.68;;;;;;;23.53;52.23;95539.75;5008416;28;20033;-83
2022/08/11 08:57:04;;;;;;;4.82;4.22;;;;;;;23.49;51.93;95538.59;5007921;28;20030;-83
2022/08/11 08:59:31;;;;;;;6.15;4.10;;;;;;;23.55;51.43;95537.56;5008114;28;20038;-83
2022/08/11 09:02:05;;;;;;;5.95;4.63;;;;;;;23.69;51.14;95532.53;5025890;28;20056;-83
2022/08/11 09:04:31;;;;;;;9.80;4.32;;;;;;;23.81;50.12;95526.88;5007748;28;20100;-83
2022/08/11 09:06:58;;;;;;;6.72;4.57;;;;;;;23.82;49.85;95536.75;5008782;28;20021;-82
2022/08/11 09:09:24;;;;;;;4.82;4.25;;;;;;;23.93;50.20;95525.88;5008017;28;20057;-83
2022/08/11 09:11:49;;;;;;;5.30;4.18;;;;;;;23.90;49.35;95534.63;5025637;28;20515;-83
2022/08/11 09:14:16;;;;;;;5.25;4.15;;;;;;;24.05;49.86;95523.78;5007924;28;20037;-82
2022/08/11 09:16:42;;;;;;;4.85;4.35;;;;;;;23.93;50.63;95525.88;5008056;28;20048;-82
2022/08/11 09:19:08;;;;;;;5.45;4.53;;;;;;;23.99;50.87;95513.06;5011124;28;20468;-83
2022/08/11 09:21:33;;;;;;;5.70;5.10;;;;;;;23.99;51.02;95526.75;5012026;28;20024;-82
2022/08/11 09:26:58;;;;;;;6.00;4.72;;;;;;;23.95;50.55;95521.81;5014247;28;20060;-83
2022/08/11 09:29:26;;;;;;;6.90;5.45;;;;;;;24.18;49.67;95527.22;5028732;28;20101;-83
2022/08/11 09:31:52;;;;;;;6.38;5.20;;;;;;;24.03;50.25;95520.50;5011613;28;20462;-84
2022/08/11 09:34:17;;;;;;;5.95;4.70;;;;;;;23.99;50.63;95533.03;5028315;28;20567;-83
2022/08/11 09:42:11;;;;;;;7.28;5.18;;;;;;;24.16;48.77;95523.91;5015284;28;20704;-83
2022/08/11 09:44:49;;;;;;;6.85;5.03;;;;;;;24.19;49.11;95512.44;5029418;28;20017;-83
2022/08/11 09:47:22;;;;;;;7.57;4.70;;;;;;;24.13;48.63;95516.19;5028234;28;20025;-83
2022/08/11 09:49:48;;;;;;;4.82;4.20;;;;;;;24.19;48.07;95509.69;5027889;28;20110;-83
2022/08/11 09:52:13;;;;;;;7.95;4.40;;;;;;;24.41;47.22;95508.72;5028763;28;20478;-83
2022/08/11 09:54:42;;;;;;;5.95;4.30;;;;;;;24.31;47.38;95504.84;5028684;28;20498;-83
2022/08/11 09:59:52;;;;;;;5.90;4.75;;;;;;;24.33;47.70;95496.34;5028307;28;20133;-83
2022/08/11 10:02:17;;;;;;;5.50;4.45;;;;;;;24.35;47.13;95493.34;5028989;28;20468;-83
2022/08/11 10:04:46;;;;;;;6.70;4.15;;;;;;;24.09;46.95;95491.22;5011280;28;20029;-83
2022/08/11 10:07:15;;;;;;;5.65;4.20;;;;;;;24.24;46.77;95498.78;5027577;28;20053;-82
2022/08/11 10:09:40;;;;;;;4.60;3.20;;;;;;;24.32;45.38;95490.06;5027499;28;20044;-82
2022/08/11 10:12:11;;;;;;;5.70;4.05;;;;;;;24.33;46.84;95485.38;5028904;28;20049;-82
2022/08/11 10:17:24;;;;;;;6.72;4.15;;;;;;;24.23;46.31;95486.13;5029317;28;20416;-82
2022/08/11 10:19:50;;;;;;;10.63;4.43;;;;;;;24.31;46.36;95482.91;5010985;28;20025;-82
2022/08/11 10:27:44;;;;;;;4.68;4.00;;;;;;;24.37;47.24;95483.78;5028471;28;20043;-82
2022/08/11 10:35:42;;;;;;;8.82;4.60;;;;;;;24.57;47.57;95484.97;5027239;28;20546;-83
2022/08/11 10:38:08;;;;;;;6.55;4.40;;;;;;;24.52;46.63;95488.53;5027504;28;20025;-84
2022/08/11 10:40:34;;;;;;;6.38;4.65;;;;;;;24.63;46.78;95488.59;5026946;28;20022;-83
2022/08/11 10:43:05;;;;;;;8.35;4.53;;;;;;;24.65;46.36;95483.69;5028561;28;20121;-83
2022/08/11 10:48:33;;;;;;;5.60;4.32;;;;;;;24.78;45.77;95480.44;5027176;28;20172;-82
2022/08/11 10:51:14;;;;;;;6.60;4.80;;;;;;;24.81;45.54;95466.19;5027314;28;20033;-83
2022/08/11 10:59:18;;;;;;;8.50;4.50;;;;;;;24.92;45.83;95455.31;5013298;28;20128;-84
2022/08/11 11:01:44;;;;;;;5.15;4.65;;;;;;;25.15;45.05;95456.72;5009859;28;20472;-83
2022/08/11 11:04:15;;;;;;;5.78;4.63;;;;;;;25.14;44.84;95451.53;5027072;28;20018;-84
2022/08/11 11:07:03;;;;;;;9.27;5.43;;;;;;;25.15;44.15;95462.22;5026496;28;20108;-83
2022/08/11 11:09:39;;;;;;;6.82;4.38;;;;;;;25.10;44.68;95445.75;5026466;28;20109;-83
2022/08/11 11:18:06;;;;;;;7.00;4.63;;;;;;;25.39;43.92;95430.72;5027062;28;20048;-83
2022/08/11 11:20:42;;;;;;;8.40;4.97;;;;;;;25.48;44.42;95425.50;5026275;28;20435;-84
2022/08/11 11:23:29;;;;;;;5.72;5.05;;;;;;;25.77;43.93;95436.81;5026043;28;20079;-84
2022/08/11 11:26:21;;;;;;;6.57;5.13;;;;;;;25.77;43.87;95433.25;5027949;28;20036;-84
2022/08/11 11:29:07;;;;;;;9.23;4.95;;;;;;;26.03;43.19;95428.56;5035249;28;20053;-84
2022/08/11 11:31:51;;;;;;;4.75;4.15;;;;;;;26.15;42.05;95428.28;5026935;28;20468;-84
2022/08/11 11:34:39;;;;;;;5.57;4.38;;;;;;;26.17;41.87;95428.00;5026401;28;20037;-84
2022/08/11 11:37:05;;;;;;;5.20;4.15;;;;;;;26.16;41.58;95423.59;5026189;28;20029;-85
2022/08/11 11:39:31;;;;;;;5.63;4.40;;;;;;;26.07;42.41;95428.03;5025701;28;20403;-84
2022/08/11 11:42:02;;;;;;;6.50;4.38;;;;;;;26.08;41.58;95433.25;5026539;28;20034;-83
2022/08/11 11:44:27;;;;;;;7.57;4.15;;;;;;;26.12;41.23;95422.50;5026697;28;20029;-83
2022/08/11 11:46:52;;;;;;;6.43;4.60;;;;;;;26.33;41.60;95422.47;5009517;28;20022;-83
2022/08/11 11:49:21;;;;;;;6.53;4.05;;;;;;;26.30;41.20;95421.09;5009111;28;20029;-83
2022/08/11 11:51:47;;;;;;;5.57;4.28;;;;;;;26.19;41.01;95422.22;5027453;28;20033;-83
2022/08/11 11:54:15;;;;;;;6.90;3.80;;;;;;;26.11;41.11;95437.34;5025373;28;20026;-83
2022/08/11 11:56:41;;;;;;;6.53;3.40;;;;;;;26.20;40.49;95424.69;5009754;28;20045;-85
2022/08/11 12:01:51;;;;;;;4.68;3.42;;;;;;;26.76;39.37;95430.34;5025503;28;20036;-83
2022/08/11 12:04:18;;;;;;;3.65;3.28;;;;;;;26.74;39.53;95425.13;5009259;28;20021;-83
2022/08/11 12:06:43;;;;;;;7.80;3.13;;;;;;;27.14;38.18;95414.22;5008561;28;20025;-85
2022/08/11 12:09:09;;;;;;;5.30;3.22;;;;;;;27.18;38.07;95413.66;5025836;28;20507;-86
2022/08/11 12:14:19;;;;;;;4.32;3.08;;;;;;;27.20;37.95;95406.75;5025965;28;20052;-84
2022/08/11 12:16:45;;;;;;;6.45;3.63;;;;;;;27.51;39.64;95408.47;5008756;28;20068;-84
2022/08/11 12:19:20;;;;;;;5.20;3.20;;;;;;;27.62;39.50;95421.06;5025262;28;20112;-83
2022/08/11 12:27:19;;;;;;;3.83;3.42;;;;;;;27.06;40.96;95412.06;5030194;28;20160;-84
2022/08/11 12:29:56;;;;;;;6.50;3.67;;;;;;;26.88;41.65;95424.50;5009234;28;20021;-83
2022/08/11 12:32:26;;;;;;;4.53;3.05;;;;;;;26.79;41.80;95427.03;5024426;28;20468;-85
2022/08/11 12:34:52;;;;;;;4.93;3.10;;;;;;;26.52;40.87;95428.22;5024999;28;20026;-83
2022/08/11 12:37:22;;;;;;;7.55;3.40;;;;;;;26.33;41.73;95434.31;5024616;28;20081;-83
2022/08/11 12:45:27;;;;;;;3.42;2.47;;;;;;;25.88;43.29;95428.56;5024960;28;20444;-84
2022/08/11 12:54:01;;;;;;;4.75;2.70;;;;;;;25.12;44.20;95426.25;5025993;28;20040;-84
2022/08/11 13:04:59;;;;;;;6.65;3.33;;;;;;;25.74;45.38;95418.16;5025436;28;20040;-84
2022/08/11 13:07:27;;;;;;;6.32;3.67;;;;;;;25.65;44.44;95426.09;5024460;28;20056;-83
2022/08/11 13:09:54;;;;;;;8.70;3.13;;;;;;;25.70;44.24;95421.72;5024868;28;20392;-84
2022/08/11 13:15:05;;;;;;;5.35;3.20;;;;;;;25.92;44.42;95413.19;5024831;28;20040;-84
2022/08/11 13:17:31;;;;;;;4.10;3.17;;;;;;;26.07;42.93;95419.78;5024792;28;20053;-83
2022/08/11 13:19:57;;;;;;;4.70;3.40;;;;;;;26.13;42.28;95413.97;5007266;28;20538;-83
2022/08/11 13:22:24;;;;;;;7.20;3.15;;;;;;;26.29;41.55;95412.00;5026123;28;20032;-83
2022/08/11 13:24:49;;;;;;;4.55;3.03;;;;;;;26.46;40.50;95405.41;5007700;28;20488;-84
2022/08/11 13:27:16;;;;;;;4.03;3.03;;;;;;;26.42;40.57;95401.59;5024640;28;20029;-84
2022/08/11 13:29:41;;;;;;;4.38;2.95;;;;;;;26.68;40.45;95403.41;5025337;28;20382;-84
2022/08/11 13:32:07;;;;;;;5.00;2.67;;;;;;;26.83;39.24;95402.50;5007597;28;20103;-84
2022/08/11 13:34:34;;;;;;;3.38;2.10;;;;;;;26.87;38.11;95393.44;5024562;28;20030;-83
2022/08/11 13:37:00;;;;;;;3.20;2.30;;;;;;;26.83;38.05;95388.75;5023840;28;20496;-84
2022/08/11 13:39:27;;;;;;;3.42;2.22;;;;;;;27.10;37.98;95380.09;5024480;28;20017;-83
2022/08/11 13:41:55;;;;;;;3.28;2.10;;;;;;;27.24;36.23;95382.25;5025086;28;20104;-83
2022/08/11 13:44:20;;;;;;;2.88;2.08;;;;;;;27.27;36.20;95379.75;5008432;28;20033;-83
2022/08/11 13:46:46;;;;;;;3.53;2.22;;;;;;;27.47;36.28;95377.94;5023843;28;20080;-84
2022/08/11 13:49:13;;;;;;;2.70;2.22;;;;;;;27.79;35.62;95383.22;5024134;28;20029;-83
2022/08/11 13:51:38;;;;;;;2.88;2.22;;;;;;;28.07;34.24;95378.81;5007548;28;20060;-83
2022/08/11 13:54:11;;;;;;;2.63;2.00;;;;;;;28.06;34.46;95379.94;5024069;28;20025;-83
2022/08/11 13:56:41;;;;;;;2.83;2.08;;;;;;;28.38;34.11;95383.22;5007869;28;20115;-84
2022/08/11 13:59:09;;;;;;;5.80;2.50;;;;;;;28.40;34.57;95375.47;5023632;28;20060;-84
2022/08/11 14:01:40;;;;;;;3.05;2.60;;;;;;;28.68;34.91;95377.63;5024610;28;20030;-84
2022/08/11 14:04:10;;;;;;;5.18;3.53;;;;;;;28.95;34.26;95374.25;5024962;28;20091;-85
2022/08/11 14:06:37;;;;;;;2.97;2.60;;;;;;;29.31;34.21;95372.91;5029833;28;20029;-84
2022/08/11 14:09:03;;;;;;;8.55;3.10;;;;;;;28.88;35.01;95380.13;5011110;28;20029;-84
2022/08/11 14:14:29;;;;;;;5.35;2.90;;;;;;;29.16;34.15;95374.00;5027645;28;20044;-84
2022/08/11 14:16:55;;;;;;;3.83;2.80;;;;;;;29.31;34.64;95381.22;5013070;28;20036;-84
2022/08/11 14:19:23;;;;;;;3.30;2.92;;;;;;;28.91;34.94;95372.34;5027732;28;20412;-84
2022/08/11 14:22:07;;;;;;;4.50;2.70;;;;;;;28.78;35.50;95374.72;5011201;28;20036;-84
2022/08/11 14:24:37;;;;;;;5.82;3.10;;;;;;;29.03;35.82;95381.06;5027562;28;20025;-84
2022/08/11 14:27:03;;;;;;;3.42;2.92;;;;;;;29.68;34.79;95372.41;5027300;28;20496;-84
2022/08/11 14:29:31;;;;;;;4.68;3.10;;;;;;;30.18;34.00;95382.03;5026898;28;20434;-84
2022/08/11 14:32:01;;;;;;;3.90;2.70;;;;;;;30.83;32.55;95368.34;5011392;28;20443;-84
2022/08/11 14:34:29;;;;;;;4.07;2.78;;;;;;;31.31;31.82;95363.41;5026650;28;20025;-83
2022/08/11 14:36:58;;;;;;;5.15;3.08;;;;;;;31.80;31.42;95368.38;5011506;28;20046;-85
2022/08/11 14:39:25;;;;;;;3.63;2.72;;;;;;;32.07;31.07;95364.66;5031164;28;20045;-84
2022/08/11 14:47:30;;;;;;;4.88;2.58;;;;;;;32.58;29.95;95358.03;5013102;28;20124;-84
2022/08/11 14:49:56;;;;;;;5.25;3.10;;;;;;;32.66;29.21;95350.88;5027059;28;20160;-84
2022/08/11 14:52:22;;;;;;;4.35;2.83;;;;;;;31.97;30.27;95358.56;5010265;28;20029;-84
2022/08/11 14:57:35;;;;;;;4.30;3.08;;;;;;;30.76;31.86;95359.63;5028232;28;20502;-83
2022/08/11 15:00:02;;;;;;;4.20;3.08;;;;;;;30.72;32.37;95362.19;5027829;28;20029;-84
2022/08/11 15:05:12;;;;;;;5.88;3.20;;;;;;;29.91;33.64;95361.47;5012817;28;20079;-84
2022/08/11 15:07:37;;;;;;;4.63;3.40;;;;;;;29.56;33.53;95364.53;5027513;28;20018;-83
2022/08/11 15:10:07;;;;;;;4.10;2.90;;;;;;;29.19;33.64;95367.03;5010252;28;20086;-84
2022/08/11 15:12:33;;;;;;;3.50;3.10;;;;;;;28.80;34.01;95363.41;5025511;28;20088;-83
2022/08/11 15:17:49;;;;;;;11.23;3.72;;;;;;;28.03;35.96;95366.75;5026657;28;20036;-84
2022/08/11 15:25:47;;;;;;;6.13;3.50;;;;;;;27.17;37.39;95356.94;5012824;28;20036;-83
2022/08/11 15:48:05;;;;;;;4.28;3.00;;;;;;;25.99;40.20;95364.28;5026137;28;20036;-83
2022/08/11 15:50:31;;;;;;;4.03;3.00;;;;;;;25.91;40.03;95365.66;5025891;28;20025;-83
2022/08/11 15:52:59;;;;;;;4.13;3.45;;;;;;;25.88;40.46;95368.13;5025562;28;20036;-83
2022/08/11 15:55:25;;;;;;;4.95;3.10;;;;;;;25.85;40.69;95360.44;5009144;28;20064;-82
2022/08/11 16:06:04;;;;;;;6.80;3.40;;;;;;;25.81;40.61;95368.41;5011888;28;20067;-83
2022/08/11 16:08:30;;;;;;;5.70;3.50;;;;;;;25.76;40.34;95369.25;5025137;28;20030;-82
2022/08/11 16:10:55;;;;;;;5.63;3.67;;;;;;;25.79;40.43;95368.69;5008930;28;20029;-83
2022/08/11 16:18:48;;;;;;;5.68;3.33;;;;;;;25.80;40.39;95381.34;5025065;28;20459;-83
2022/08/11 16:21:16;;;;;;;4.45;2.97;;;;;;;25.77;39.33;95376.41;5025207;28;20373;-83
2022/08/11 16:23:43;;;;;;;4.53;3.17;;;;;;;25.72;39.43;95372.81;5025089;28;20458;-84
2022/08/11 16:26:08;;;;;;;5.88;3.63;;;;;;;25.65;39.19;95381.38;5024509;28;20472;-83
2022/08/11 16:28:34;;;;;;;3.20;2.67;;;;;;;25.55;39.13;95377.47;5025221;28;20075;-82
2022/08/11 16:30:59;;;;;;;4.32;3.08;;;;;;;25.51;39.43;95376.38;5008137;28;20504;-82
2022/08/11 16:33:25;;;;;;;5.15;2.78;;;;;;;25.50;38.89;95371.16;5009146;28;20033;-83
2022/08/11 16:38:34;;;;;;;4.53;2.75;;;;;;;25.50;39.41;95374.75;5025000;28;20107;-83